createdAt,value
2017-06-01T00:00:37.740Z,1009.75
2017-06-01T00:01:39.193Z,1009.73
2017-06-01T00:02:40.627Z,1009.75
2017-06-01T00:03:42.068Z,1009.71
2017-06-01T00:04:43.512Z,1009.72
2017-06-01T00:05:44.943Z,1009.72
2017-06-01T00:06:46.375Z,1009.69
2017-06-01T00:07:47.816Z,1009.71
2017-06-01T00:08:49.261Z,1009.72
2017-06-01T00:09:50.703Z,1009.74
2017-06-01T00:10:52.141Z,1009.76
2017-06-01T00:11:53.574Z,1009.77
2017-06-01T00:12:55.010Z,1009.76
2017-06-01T00:13:56.455Z,1009.78
2017-06-01T00:14:57.882Z,1009.76
2017-06-01T00:15:59.323Z,1009.78
2017-06-01T00:17:00.762Z,1009.78
2017-06-01T00:18:02.190Z,1009.81
2017-06-01T00:19:03.633Z,1009.79
2017-06-01T00:20:05.065Z,1009.78
2017-06-01T00:21:06.496Z,1009.81
2017-06-01T00:22:07.935Z,1009.80
2017-06-01T00:23:09.373Z,1009.79
2017-06-01T00:24:10.816Z,1009.86
2017-06-01T00:25:12.251Z,1009.86
2017-06-01T00:26:13.690Z,1009.89
2017-06-01T00:27:15.132Z,1009.89
2017-06-01T00:28:16.569Z,1009.91
2017-06-01T00:29:18.014Z,1009.92
2017-06-01T00:30:19.489Z,1009.91
2017-06-01T00:31:20.924Z,1009.90
2017-06-01T00:32:22.363Z,1009.90
2017-06-01T00:33:23.799Z,1009.89
2017-06-01T00:34:25.243Z,1009.87
2017-06-01T00:35:26.676Z,1009.91
2017-06-01T00:36:28.103Z,1009.86
2017-06-01T00:37:29.557Z,1009.89
2017-06-01T00:38:30.997Z,1009.89
2017-06-01T00:39:32.434Z,1009.91
2017-06-01T00:40:33.878Z,1009.92
2017-06-01T00:41:35.313Z,1009.93
2017-06-01T00:42:36.748Z,1009.92
2017-06-01T00:43:38.184Z,1009.97
2017-06-01T00:44:39.628Z,1009.94
2017-06-01T00:45:41.064Z,1009.91
2017-06-01T00:46:42.499Z,1009.92
2017-06-01T00:47:43.941Z,1009.94
2017-06-01T00:48:45.377Z,1009.93
2017-06-01T00:49:46.840Z,1009.96
2017-06-01T00:50:48.269Z,1009.94
2017-06-01T00:51:49.715Z,1009.97
2017-06-01T00:52:51.158Z,1009.97
2017-06-01T00:53:52.597Z,1009.97
2017-06-01T00:54:54.034Z,1009.98
2017-06-01T00:55:55.473Z,1009.97
2017-06-01T00:56:57.000Z,1010.00
2017-06-01T00:57:58.433Z,1010.00
2017-06-01T00:58:59.864Z,1010.01
2017-06-01T01:00:01.342Z,1009.99
2017-06-01T01:01:02.775Z,1010.01
2017-06-01T01:02:04.213Z,1009.99
2017-06-01T01:03:05.643Z,1010.03
2017-06-01T01:04:07.085Z,1010.01
2017-06-01T01:05:08.517Z,1010.00
2017-06-01T01:06:09.950Z,1010.01
2017-06-01T01:07:11.447Z,1009.97
2017-06-01T01:08:12.884Z,1009.97
2017-06-01T01:09:14.322Z,1009.98
2017-06-01T01:10:15.756Z,1009.96
2017-06-01T01:11:17.191Z,1009.96
2017-06-01T01:12:18.622Z,1009.95
2017-06-01T01:13:20.057Z,1009.93
2017-06-01T01:14:21.521Z,1009.94
2017-06-01T01:15:22.938Z,1009.97
2017-06-01T01:16:24.375Z,1009.96
2017-06-01T01:17:25.813Z,1009.95
2017-06-01T01:18:27.254Z,1009.97
2017-06-01T01:19:28.684Z,1009.95
2017-06-01T01:20:30.116Z,1009.90
2017-06-01T01:21:31.639Z,1009.92
2017-06-01T01:22:33.077Z,1009.93
2017-06-01T01:23:34.516Z,1009.95
2017-06-01T01:24:35.962Z,1009.91
2017-06-01T01:25:37.394Z,1009.95
2017-06-01T01:26:38.832Z,1009.93
2017-06-01T01:27:40.264Z,1009.94
2017-06-01T01:28:41.699Z,1009.92
2017-06-01T01:29:43.133Z,1009.91
2017-06-01T01:30:44.565Z,1009.90
2017-06-01T01:31:46.004Z,1009.91
2017-06-01T01:32:47.434Z,1009.92
2017-06-01T01:33:48.950Z,1009.93
2017-06-01T01:34:50.381Z,1009.96
2017-06-01T01:35:51.815Z,1009.92
2017-06-01T01:36:53.252Z,1009.96
2017-06-01T01:37:54.694Z,1009.99
2017-06-01T01:38:56.136Z,1009.98
2017-06-01T01:39:57.575Z,1009.97
2017-06-01T01:40:59.064Z,1009.98
2017-06-01T01:42:00.495Z,1009.95
2017-06-01T01:43:01.934Z,1009.94
2017-06-01T01:44:03.383Z,1009.96
2017-06-01T01:45:04.817Z,1010.00
2017-06-01T01:46:06.259Z,1009.96
2017-06-01T01:47:07.726Z,1009.97
2017-06-01T01:48:09.172Z,1009.95
2017-06-01T01:49:10.601Z,1009.98
2017-06-01T01:50:12.044Z,1009.99
2017-06-01T01:51:13.491Z,1009.98
2017-06-01T01:52:14.954Z,1009.94
2017-06-01T01:53:16.387Z,1009.97
2017-06-01T01:54:17.883Z,1009.97
2017-06-01T01:55:19.268Z,1009.94
2017-06-01T01:56:20.702Z,1009.95
2017-06-01T01:57:22.141Z,1009.98
2017-06-01T01:58:23.586Z,1010.00
2017-06-01T01:59:25.031Z,1010.00
2017-06-01T02:00:26.462Z,1010.03
2017-06-01T02:01:27.897Z,1010.01
2017-06-01T02:02:29.356Z,1010.05
2017-06-01T02:03:30.787Z,1010.05
2017-06-01T02:04:32.231Z,1010.02
2017-06-01T02:05:33.697Z,1010.06
2017-06-01T02:06:35.187Z,1010.01
2017-06-01T02:07:36.621Z,1010.06
2017-06-01T02:08:38.056Z,1010.03
2017-06-01T02:09:39.490Z,1010.04
2017-06-01T02:10:40.934Z,1010.05
2017-06-01T02:11:42.371Z,1010.04
2017-06-01T02:12:43.805Z,1010.08
2017-06-01T02:13:45.240Z,1010.05
2017-06-01T02:14:46.676Z,1010.04
2017-06-01T02:15:48.110Z,1010.05
2017-06-01T02:16:49.547Z,1010.06
2017-06-01T02:17:50.986Z,1010.06
2017-06-01T02:18:52.426Z,1010.05
2017-06-01T02:19:53.868Z,1010.05
2017-06-01T02:20:55.365Z,1010.12
2017-06-01T02:21:56.802Z,1010.09
2017-06-01T02:22:58.234Z,1010.06
2017-06-01T02:23:59.676Z,1010.07
2017-06-01T02:25:01.114Z,1010.03
2017-06-01T02:26:02.548Z,1010.05
2017-06-01T02:27:03.985Z,1010.01
2017-06-01T02:28:05.427Z,1010.04
2017-06-01T02:29:06.869Z,1010.05
2017-06-01T02:30:08.302Z,1010.04
2017-06-01T02:31:09.739Z,1010.04
2017-06-01T02:32:11.173Z,1010.01
2017-06-01T02:33:12.604Z,1010.04
2017-06-01T02:34:14.040Z,1010.05
2017-06-01T02:35:15.477Z,1010.02
2017-06-01T02:36:16.914Z,1010.03
2017-06-01T02:37:18.345Z,1010.04
2017-06-01T02:38:19.809Z,1009.98
2017-06-01T02:39:21.212Z,1009.97
2017-06-01T02:40:22.651Z,1010.02
2017-06-01T02:41:24.086Z,1009.99
2017-06-01T02:42:25.529Z,1009.99
2017-06-01T02:43:26.969Z,1009.99
2017-06-01T02:44:28.409Z,1010.01
2017-06-01T02:45:29.836Z,1010.01
2017-06-01T02:46:31.266Z,1010.02
2017-06-01T02:47:32.704Z,1010.01
2017-06-01T02:48:34.137Z,1009.98
2017-06-01T02:49:35.571Z,1010.01
2017-06-01T02:50:37.015Z,1009.98
2017-06-01T02:51:38.443Z,1009.98
2017-06-01T02:52:39.876Z,1009.97
2017-06-01T02:53:41.313Z,1009.97
2017-06-01T02:55:22.311Z,1009.97
2017-06-01T02:56:23.742Z,1009.99
2017-06-01T02:57:25.171Z,1009.97
2017-06-01T02:58:26.610Z,1009.97
2017-06-01T02:59:28.050Z,1009.97
2017-06-01T03:00:29.488Z,1010.00
2017-06-01T03:01:30.932Z,1009.99
2017-06-01T03:02:32.374Z,1010.03
2017-06-01T03:03:33.809Z,1010.02
2017-06-01T03:04:35.243Z,1010.04
2017-06-01T03:05:36.678Z,1010.06
2017-06-01T03:06:38.114Z,1010.01
2017-06-01T03:07:39.548Z,1010.01
2017-06-01T03:08:40.985Z,1010.02
2017-06-01T03:09:42.423Z,1009.99
2017-06-01T03:10:43.855Z,1009.97
2017-06-01T03:11:45.291Z,1010.01
2017-06-01T03:12:46.726Z,1010.04
2017-06-01T03:13:48.159Z,1010.05
2017-06-01T03:14:49.594Z,1010.06
2017-06-01T03:15:51.025Z,1010.04
2017-06-01T03:16:52.459Z,1010.08
2017-06-01T03:17:53.900Z,1010.03
2017-06-01T03:18:55.335Z,1010.04
2017-06-01T03:19:56.765Z,1010.02
2017-06-01T03:20:58.200Z,1010.04
2017-06-01T03:21:59.636Z,1009.98
2017-06-01T03:23:01.074Z,1009.94
2017-06-01T03:24:02.511Z,1009.99
2017-06-01T03:25:03.949Z,1009.97
2017-06-01T03:26:05.395Z,1009.96
2017-06-01T03:27:06.824Z,1009.95
2017-06-01T03:28:08.257Z,1009.98
2017-06-01T03:29:09.700Z,1009.97
2017-06-01T03:30:11.139Z,1009.98
2017-06-01T03:31:12.574Z,1010.01
2017-06-01T03:32:14.010Z,1009.98
2017-06-01T03:33:15.443Z,1010.01
2017-06-01T03:34:16.878Z,1009.99
2017-06-01T03:35:18.310Z,1010.01
2017-06-01T03:36:19.745Z,1010.02
2017-06-01T03:37:21.182Z,1010.01
2017-06-01T03:38:22.622Z,1010.00
2017-06-01T03:39:24.050Z,1010.00
2017-06-01T03:40:25.490Z,1010.03
2017-06-01T03:41:26.927Z,1010.01
2017-06-01T03:42:28.356Z,1010.04
2017-06-01T03:43:29.794Z,1010.04
2017-06-01T03:44:31.247Z,1010.06
2017-06-01T03:45:32.678Z,1010.04
2017-06-01T03:46:34.111Z,1010.08
2017-06-01T03:47:35.549Z,1010.09
2017-06-01T03:48:37.053Z,1010.10
2017-06-01T03:49:38.491Z,1010.13
2017-06-01T03:50:39.931Z,1010.15
2017-06-01T03:51:41.364Z,1010.10
2017-06-01T03:52:42.804Z,1010.12
2017-06-01T03:53:44.250Z,1010.14
2017-06-01T03:54:45.685Z,1010.11
2017-06-01T03:55:47.130Z,1010.14
2017-06-01T03:56:48.565Z,1010.13
2017-06-01T03:57:49.998Z,1010.11
2017-06-01T03:58:51.437Z,1010.11
2017-06-01T03:59:53.021Z,1010.14
2017-06-01T04:00:54.439Z,1010.14
2017-06-01T04:01:55.869Z,1010.12
2017-06-01T04:02:57.351Z,1010.16
2017-06-01T04:03:58.787Z,1010.15
2017-06-01T04:05:01.192Z,1010.12
2017-06-01T04:06:03.429Z,1010.10
2017-06-01T04:07:06.417Z,1010.12
2017-06-01T04:08:08.762Z,1010.12
2017-06-01T04:09:10.050Z,1010.13
2017-06-01T04:10:12.094Z,1010.13
2017-06-01T04:11:13.528Z,1010.11
2017-06-01T04:12:14.966Z,1010.12
2017-06-01T04:13:16.396Z,1010.14
2017-06-01T04:14:17.831Z,1010.14
2017-06-01T04:15:19.264Z,1010.18
2017-06-01T04:16:20.698Z,1010.15
2017-06-01T04:17:22.134Z,1010.15
2017-06-01T04:18:23.568Z,1010.12
2017-06-01T04:19:25.011Z,1010.13
2017-06-01T04:20:26.451Z,1010.12
2017-06-01T04:21:27.888Z,1010.16
2017-06-01T04:22:29.315Z,1010.15
2017-06-01T04:23:30.751Z,1010.16
2017-06-01T04:24:32.187Z,1010.16
2017-06-01T04:25:33.624Z,1010.17
2017-06-01T04:26:35.056Z,1010.16
2017-06-01T04:27:36.498Z,1010.19
2017-06-01T04:28:37.946Z,1010.24
2017-06-01T04:29:39.382Z,1010.27
2017-06-01T04:30:40.816Z,1010.24
2017-06-01T04:31:42.253Z,1010.25
2017-06-01T04:32:43.685Z,1010.32
2017-06-01T04:33:45.122Z,1010.25
2017-06-01T04:34:46.562Z,1010.25
2017-06-01T04:35:47.993Z,1010.23
2017-06-01T04:36:49.421Z,1010.29
2017-06-01T04:37:50.857Z,1010.25
2017-06-01T04:38:52.297Z,1010.28
2017-06-01T04:39:53.735Z,1010.27
2017-06-01T04:40:55.178Z,1010.31
2017-06-01T04:41:56.625Z,1010.25
2017-06-01T04:42:58.061Z,1010.28
2017-06-01T04:43:59.503Z,1010.30
2017-06-01T04:45:00.946Z,1010.29
2017-06-01T04:46:02.389Z,1010.35
2017-06-01T04:47:03.831Z,1010.33
2017-06-01T04:48:05.267Z,1010.37
2017-06-01T04:49:06.709Z,1010.38
2017-06-01T04:50:08.148Z,1010.43
2017-06-01T04:51:09.597Z,1010.41
2017-06-01T04:52:11.032Z,1010.41
2017-06-01T04:53:12.463Z,1010.43
2017-06-01T04:54:13.909Z,1010.45
2017-06-01T04:55:15.339Z,1010.48
2017-06-01T04:56:16.792Z,1010.44
2017-06-01T04:57:18.224Z,1010.49
2017-06-01T04:58:19.661Z,1010.46
2017-06-01T04:59:21.091Z,1010.48
2017-06-01T05:00:22.535Z,1010.45
2017-06-01T05:01:23.970Z,1010.46
2017-06-01T05:02:25.400Z,1010.47
2017-06-01T05:03:27.421Z,1010.44
2017-06-01T05:04:28.862Z,1010.47
2017-06-01T05:05:30.303Z,1010.44
2017-06-01T05:06:31.739Z,1010.43
2017-06-01T05:07:33.209Z,1010.44
2017-06-01T05:08:34.641Z,1010.50
2017-06-01T05:09:36.081Z,1010.47
2017-06-01T05:10:37.520Z,1010.50
2017-06-01T05:11:38.955Z,1010.50
2017-06-01T05:12:40.388Z,1010.54
2017-06-01T05:13:41.835Z,1010.55
2017-06-01T05:14:43.273Z,1010.54
2017-06-01T05:15:44.708Z,1010.58
2017-06-01T05:16:46.145Z,1010.55
2017-06-01T05:17:47.593Z,1010.53
2017-06-01T05:18:49.038Z,1010.54
2017-06-01T05:19:50.472Z,1010.50
2017-06-01T05:20:51.927Z,1010.52
2017-06-01T05:21:53.370Z,1010.53
2017-06-01T05:22:54.813Z,1010.53
2017-06-01T05:23:56.247Z,1010.53
2017-06-01T05:24:57.688Z,1010.52
2017-06-01T05:25:59.129Z,1010.50
2017-06-01T05:27:00.565Z,1010.49
2017-06-01T05:28:01.993Z,1010.53
2017-06-01T05:29:03.441Z,1010.50
2017-06-01T05:30:04.881Z,1010.54
2017-06-01T05:31:06.319Z,1010.55
2017-06-01T05:32:07.768Z,1010.55
2017-06-01T05:33:09.257Z,1010.55
2017-06-01T05:34:10.687Z,1010.58
2017-06-01T05:35:12.127Z,1010.61
2017-06-01T05:36:13.558Z,1010.56
2017-06-01T05:37:14.992Z,1010.64
2017-06-01T05:38:16.433Z,1010.64
2017-06-01T05:39:17.875Z,1010.63
2017-06-01T05:40:19.327Z,1010.67
2017-06-01T05:41:20.759Z,1010.66
2017-06-01T05:42:22.199Z,1010.68
2017-06-01T05:43:23.642Z,1010.67
2017-06-01T05:44:25.079Z,1010.69
2017-06-01T05:45:26.517Z,1010.69
2017-06-01T05:46:27.989Z,1010.69
2017-06-01T05:47:29.402Z,1010.66
2017-06-01T05:48:30.839Z,1010.69
2017-06-01T05:49:32.277Z,1010.65
2017-06-01T05:50:33.712Z,1010.70
2017-06-01T05:51:35.159Z,1010.70
2017-06-01T05:52:36.598Z,1010.68
2017-06-01T05:53:38.050Z,1010.69
2017-06-01T05:54:39.482Z,1010.69
2017-06-01T05:55:40.921Z,1010.67
2017-06-01T05:56:42.355Z,1010.67
2017-06-01T05:57:43.794Z,1010.69
2017-06-01T05:58:45.349Z,1010.71
2017-06-01T05:59:46.790Z,1010.75
2017-06-01T06:00:48.225Z,1010.70
2017-06-01T06:01:49.686Z,1010.68
2017-06-01T06:02:51.119Z,1010.69
2017-06-01T06:03:52.547Z,1010.67
2017-06-01T06:04:53.990Z,1010.67
2017-06-01T06:05:55.421Z,1010.68
2017-06-01T06:06:56.862Z,1010.71
2017-06-01T06:07:58.303Z,1010.68
2017-06-01T06:08:59.738Z,1010.67
2017-06-01T06:10:01.181Z,1010.70
2017-06-01T06:11:02.614Z,1010.67
2017-06-01T06:12:04.047Z,1010.69
2017-06-01T06:13:05.485Z,1010.75
2017-06-01T06:14:06.920Z,1010.75
2017-06-01T06:15:08.357Z,1010.77
2017-06-01T06:16:09.794Z,1010.82
2017-06-01T06:17:11.373Z,1010.82
2017-06-01T06:18:12.808Z,1010.84
2017-06-01T06:19:14.240Z,1010.80
2017-06-01T06:20:15.702Z,1010.78
2017-06-01T06:21:17.145Z,1010.76
2017-06-01T06:22:18.580Z,1010.80
2017-06-01T06:23:20.013Z,1010.75
2017-06-01T06:24:21.451Z,1010.78
2017-06-01T06:25:22.884Z,1010.81
2017-06-01T06:26:24.321Z,1010.82
2017-06-01T06:27:25.767Z,1010.79
2017-06-01T06:28:27.205Z,1010.83
2017-06-01T06:29:28.643Z,1010.83
2017-06-01T06:30:30.083Z,1010.85
2017-06-01T06:31:31.558Z,1010.83
2017-06-01T06:32:32.989Z,1010.76
2017-06-01T06:33:34.427Z,1010.81
2017-06-01T06:34:35.867Z,1010.82
2017-06-01T06:35:37.306Z,1010.79
2017-06-01T06:36:38.748Z,1010.80
2017-06-01T06:37:40.194Z,1010.78
2017-06-01T06:38:41.628Z,1010.75
2017-06-01T06:39:43.057Z,1010.78
2017-06-01T06:40:44.494Z,1010.78
2017-06-01T06:41:45.937Z,1010.76
2017-06-01T06:42:47.372Z,1010.80
2017-06-01T06:43:48.805Z,1010.82
2017-06-01T06:44:50.245Z,1010.82
2017-06-01T06:45:51.761Z,1010.79
2017-06-01T06:46:53.196Z,1010.81
2017-06-01T06:47:54.641Z,1010.77
2017-06-01T06:48:56.080Z,1010.78
2017-06-01T06:49:57.518Z,1010.82
2017-06-01T06:50:58.954Z,1010.82
2017-06-01T06:52:00.394Z,1010.79
2017-06-01T06:53:01.829Z,1010.83
2017-06-01T06:54:03.263Z,1010.82
2017-06-01T06:55:04.697Z,1010.80
2017-06-01T06:56:06.190Z,1010.78
2017-06-01T06:57:07.623Z,1010.82
2017-06-01T06:58:09.059Z,1010.80
2017-06-01T06:59:10.501Z,1010.79
2017-06-01T07:00:11.940Z,1010.77
2017-06-01T07:01:13.413Z,1010.75
2017-06-01T07:02:14.846Z,1010.75
2017-06-01T07:03:16.285Z,1010.74
2017-06-01T07:04:17.764Z,1010.75
2017-06-01T07:05:19.201Z,1010.76
2017-06-01T07:06:20.644Z,1010.76
2017-06-01T07:07:22.090Z,1010.77
2017-06-01T07:08:23.530Z,1010.74
2017-06-01T07:09:24.966Z,1010.73
2017-06-01T07:10:26.412Z,1010.73
2017-06-01T07:11:27.844Z,1010.73
2017-06-01T07:12:29.278Z,1010.70
2017-06-01T07:13:30.715Z,1010.73
2017-06-01T07:14:32.153Z,1010.74
2017-06-01T07:15:33.610Z,1010.78
2017-06-01T07:16:35.048Z,1010.79
2017-06-01T07:17:36.492Z,1010.78
2017-06-01T07:18:37.975Z,1010.77
2017-06-01T07:19:39.421Z,1010.73
2017-06-01T07:20:40.860Z,1010.74
2017-06-01T07:21:42.301Z,1010.74
2017-06-01T07:22:43.785Z,1010.72
2017-06-01T07:23:45.216Z,1010.71
2017-06-01T07:24:46.651Z,1010.69
2017-06-01T07:25:48.087Z,1010.67
2017-06-01T07:26:49.548Z,1010.72
2017-06-01T07:27:50.999Z,1010.71
2017-06-01T07:28:52.444Z,1010.74
2017-06-01T07:29:53.880Z,1010.72
2017-06-01T07:30:55.316Z,1010.73
2017-06-01T07:31:56.756Z,1010.74
2017-06-01T07:32:58.232Z,1010.72
2017-06-01T07:33:59.672Z,1010.74
2017-06-01T07:35:01.104Z,1010.73
2017-06-01T07:36:02.543Z,1010.74
2017-06-01T07:37:03.975Z,1010.73
2017-06-01T07:38:05.407Z,1010.76
2017-06-01T07:39:06.844Z,1010.75
2017-06-01T07:40:08.287Z,1010.72
2017-06-01T07:41:09.734Z,1010.72
2017-06-01T07:42:11.172Z,1010.76
2017-06-01T07:43:12.606Z,1010.70
2017-06-01T07:44:14.044Z,1010.73
2017-06-01T07:45:15.489Z,1010.73
2017-06-01T07:46:16.927Z,1010.76
2017-06-01T07:47:18.359Z,1010.70
2017-06-01T07:48:19.796Z,1010.67
2017-06-01T07:49:21.233Z,1010.76
2017-06-01T07:50:22.667Z,1010.72
2017-06-01T07:51:24.107Z,1010.74
2017-06-01T07:52:25.552Z,1010.70
2017-06-01T07:53:26.986Z,1010.70
2017-06-01T07:54:28.424Z,1010.68
2017-06-01T07:55:29.858Z,1010.67
2017-06-01T07:56:31.299Z,1010.63
2017-06-01T07:57:32.735Z,1010.66
2017-06-01T07:58:34.166Z,1010.65
2017-06-01T07:59:35.710Z,1010.66
2017-06-01T08:00:37.162Z,1010.66
2017-06-01T08:01:38.599Z,1010.68
2017-06-01T08:02:40.037Z,1010.66
2017-06-01T08:03:41.510Z,1010.71
2017-06-01T08:04:42.948Z,1010.72
2017-06-01T08:05:44.381Z,1010.71
2017-06-01T08:06:45.865Z,1010.68
2017-06-01T08:07:47.298Z,1010.66
2017-06-01T08:08:48.737Z,1010.67
2017-06-01T08:09:50.171Z,1010.65
2017-06-01T08:10:51.612Z,1010.66
2017-06-01T08:11:53.042Z,1010.63
2017-06-01T08:12:54.470Z,1010.64
2017-06-01T08:13:55.917Z,1010.67
2017-06-01T08:14:57.363Z,1010.68
2017-06-01T08:15:58.799Z,1010.69
2017-06-01T08:17:00.242Z,1010.67
2017-06-01T08:18:01.736Z,1010.69
2017-06-01T08:19:03.172Z,1010.70
2017-06-01T08:20:04.618Z,1010.71
2017-06-01T08:21:06.060Z,1010.72
2017-06-01T08:22:07.497Z,1010.68
2017-06-01T08:23:08.934Z,1010.67
2017-06-01T08:24:10.376Z,1010.65
2017-06-01T08:25:11.812Z,1010.66
2017-06-01T08:26:13.250Z,1010.68
2017-06-01T08:27:14.681Z,1010.67
2017-06-01T08:28:16.119Z,1010.67
2017-06-01T08:29:17.603Z,1010.65
2017-06-01T08:30:19.043Z,1010.63
2017-06-01T08:31:20.479Z,1010.65
2017-06-01T08:32:21.920Z,1010.70
2017-06-01T08:33:23.357Z,1010.68
2017-06-01T08:34:24.786Z,1010.66
2017-06-01T08:35:26.286Z,1010.66
2017-06-01T08:36:27.738Z,1010.60
2017-06-01T08:37:29.173Z,1010.62
2017-06-01T08:38:30.628Z,1010.59
2017-06-01T08:39:32.067Z,1010.59
2017-06-01T08:40:33.500Z,1010.63
2017-06-01T08:41:34.930Z,1010.60
2017-06-01T08:42:36.364Z,1010.63
2017-06-01T08:43:37.817Z,1010.60
2017-06-01T08:44:39.258Z,1010.61
2017-06-01T08:45:40.702Z,1010.59
2017-06-01T08:46:42.152Z,1010.55
2017-06-01T08:47:43.596Z,1010.59
2017-06-01T08:48:45.029Z,1010.57
2017-06-01T08:49:46.468Z,1010.56
2017-06-01T08:50:47.907Z,1010.54
2017-06-01T08:51:49.343Z,1010.55
2017-06-01T08:52:50.796Z,1010.55
2017-06-01T08:53:52.230Z,1010.55
2017-06-01T08:54:53.669Z,1010.57
2017-06-01T08:55:55.112Z,1010.57
2017-06-01T08:56:56.553Z,1010.57
2017-06-01T08:57:57.992Z,1010.53
2017-06-01T08:58:59.430Z,1010.51
2017-06-01T09:00:00.864Z,1010.51
2017-06-01T09:01:02.308Z,1010.51
2017-06-01T09:02:03.755Z,1010.52
2017-06-01T09:03:05.199Z,1010.49
2017-06-01T09:04:06.626Z,1010.49
2017-06-01T09:05:08.071Z,1010.50
2017-06-01T09:06:09.516Z,1010.50
2017-06-01T09:07:10.955Z,1010.47
2017-06-01T09:08:12.395Z,1010.47
2017-06-01T09:09:13.898Z,1010.42
2017-06-01T09:10:15.336Z,1010.41
2017-06-01T09:11:16.779Z,1010.46
2017-06-01T09:12:18.217Z,1010.44
2017-06-01T09:13:19.652Z,1010.46
2017-06-01T09:14:21.096Z,1010.46
2017-06-01T09:15:22.541Z,1010.44
2017-06-01T09:16:23.976Z,1010.47
2017-06-01T09:17:25.416Z,1010.47
2017-06-01T09:18:26.856Z,1010.47
2017-06-01T09:19:28.298Z,1010.45
2017-06-01T09:20:29.734Z,1010.44
2017-06-01T09:21:31.175Z,1010.46
2017-06-01T09:22:32.623Z,1010.45
2017-06-01T09:23:34.064Z,1010.46
2017-06-01T09:24:35.501Z,1010.47
2017-06-01T09:25:36.943Z,1010.50
2017-06-01T09:26:38.377Z,1010.47
2017-06-01T09:27:39.822Z,1010.44
2017-06-01T09:28:41.256Z,1010.46
2017-06-01T09:29:42.696Z,1010.41
2017-06-01T09:30:44.131Z,1010.43
2017-06-01T09:31:45.597Z,1010.45
2017-06-01T09:32:47.029Z,1010.45
2017-06-01T09:33:48.461Z,1010.45
2017-06-01T09:34:49.909Z,1010.44
2017-06-01T09:35:51.357Z,1010.44
2017-06-01T09:36:52.792Z,1010.42
2017-06-01T09:37:54.258Z,1010.38
2017-06-01T09:38:55.778Z,1010.42
2017-06-01T09:39:57.225Z,1010.37
2017-06-01T09:40:58.666Z,1010.40
2017-06-01T09:42:00.111Z,1010.39
2017-06-01T09:43:01.547Z,1010.38
2017-06-01T09:44:02.985Z,1010.40
2017-06-01T09:45:04.419Z,1010.41
2017-06-01T09:46:05.856Z,1010.42
2017-06-01T09:47:07.294Z,1010.39
2017-06-01T09:48:08.725Z,1010.44
2017-06-01T09:49:10.173Z,1010.40
2017-06-01T09:50:11.605Z,1010.48
2017-06-01T09:51:13.042Z,1010.43
2017-06-01T09:52:14.485Z,1010.40
2017-06-01T09:53:15.924Z,1010.42
2017-06-01T09:54:17.360Z,1010.49
2017-06-01T09:55:18.801Z,1010.47
2017-06-01T09:56:20.240Z,1010.51
2017-06-01T09:57:21.745Z,1010.47
2017-06-01T09:58:23.183Z,1010.46
2017-06-01T09:59:24.616Z,1010.43
2017-06-01T10:00:26.073Z,1010.42
2017-06-01T10:01:27.508Z,1010.41
2017-06-01T10:02:28.944Z,1010.40
2017-06-01T10:03:30.377Z,1010.40
2017-06-01T10:04:31.817Z,1010.42
2017-06-01T10:05:33.258Z,1010.38
2017-06-01T10:06:34.697Z,1010.39
2017-06-01T10:07:36.132Z,1010.42
2017-06-01T10:08:37.568Z,1010.41
2017-06-01T10:09:39.009Z,1010.36
2017-06-01T10:10:40.447Z,1010.37
2017-06-01T10:11:41.885Z,1010.41
2017-06-01T10:12:43.321Z,1010.40
2017-06-01T10:13:44.754Z,1010.40
2017-06-01T10:14:46.197Z,1010.38
2017-06-01T10:15:47.639Z,1010.38
2017-06-01T10:16:49.076Z,1010.41
2017-06-01T10:17:50.520Z,1010.35
2017-06-01T10:18:51.967Z,1010.38
2017-06-01T10:19:53.410Z,1010.36
2017-06-01T10:20:54.863Z,1010.36
2017-06-01T10:21:56.284Z,1010.40
2017-06-01T10:22:57.771Z,1010.36
2017-06-01T10:23:59.210Z,1010.36
2017-06-01T10:25:00.643Z,1010.35
2017-06-01T10:26:02.232Z,1010.27
2017-06-01T10:27:03.666Z,1010.31
2017-06-01T10:28:05.106Z,1010.28
2017-06-01T10:29:06.537Z,1010.28
2017-06-01T10:30:07.974Z,1010.30
2017-06-01T10:31:09.461Z,1010.29
2017-06-01T10:32:10.849Z,1010.27
2017-06-01T10:33:12.283Z,1010.28
2017-06-01T10:34:13.728Z,1010.26
2017-06-01T10:35:15.159Z,1010.26
2017-06-01T10:36:16.600Z,1010.24
2017-06-01T10:37:18.087Z,1010.23
2017-06-01T10:38:19.525Z,1010.22
2017-06-01T10:39:20.973Z,1010.19
2017-06-01T10:40:22.416Z,1010.18
2017-06-01T10:41:23.881Z,1010.20
2017-06-01T10:42:25.317Z,1010.17
2017-06-01T10:43:26.750Z,1010.13
2017-06-01T10:44:28.182Z,1010.18
2017-06-01T10:45:29.653Z,1010.17
2017-06-01T10:46:31.095Z,1010.14
2017-06-01T10:47:33.302Z,1010.13
2017-06-01T10:48:34.737Z,1010.11
2017-06-01T10:49:36.175Z,1010.07
2017-06-01T10:50:37.609Z,1010.03
2017-06-01T10:51:39.056Z,1010.06
2017-06-01T10:52:40.493Z,1010.02
2017-06-01T10:53:41.929Z,1010.07
2017-06-01T10:54:43.367Z,1010.02
2017-06-01T10:55:44.805Z,1010.00
2017-06-01T10:56:46.241Z,1010.01
2017-06-01T10:57:47.682Z,1010.03
2017-06-01T10:58:49.118Z,1010.00
2017-06-01T10:59:50.562Z,1010.00
2017-06-01T11:00:52.008Z,1010.02
2017-06-01T11:01:53.447Z,1010.02
2017-06-01T11:02:54.887Z,1010.01
2017-06-01T11:03:56.334Z,1009.98
2017-06-01T11:04:57.770Z,1010.01
2017-06-01T11:05:59.204Z,1010.02
2017-06-01T11:07:00.650Z,1010.00
2017-06-01T11:08:02.092Z,1010.01
2017-06-01T11:09:03.534Z,1010.02
2017-06-01T11:10:04.977Z,1010.02
2017-06-01T11:11:06.429Z,1010.08
2017-06-01T11:12:07.863Z,1010.08
2017-06-01T11:13:09.313Z,1010.02
2017-06-01T11:14:10.753Z,1009.99
2017-06-01T11:15:12.184Z,1010.03
2017-06-01T11:16:13.639Z,1010.00
2017-06-01T11:17:15.071Z,1009.98
2017-06-01T11:18:16.518Z,1009.97
2017-06-01T11:19:17.950Z,1009.98
2017-06-01T11:20:19.391Z,1010.04
2017-06-01T11:21:20.830Z,1010.03
2017-06-01T11:22:22.268Z,1010.00
2017-06-01T11:23:23.706Z,1010.02
2017-06-01T11:24:25.139Z,1010.02
2017-06-01T11:25:26.581Z,1010.00
2017-06-01T11:26:28.013Z,1010.03
2017-06-01T11:27:29.452Z,1010.04
2017-06-01T11:28:30.887Z,1010.02
2017-06-01T11:29:32.325Z,1009.97
2017-06-01T11:30:33.765Z,1009.98
2017-06-01T11:31:35.203Z,1009.92
2017-06-01T11:32:36.636Z,1009.91
2017-06-01T11:33:38.070Z,1009.90
2017-06-01T11:34:39.514Z,1009.93
2017-06-01T11:35:40.948Z,1009.91
2017-06-01T11:36:42.389Z,1009.98
2017-06-01T11:37:43.831Z,1009.92
2017-06-01T11:38:45.261Z,1009.90
2017-06-01T11:39:46.706Z,1009.92
2017-06-01T11:40:48.146Z,1009.92
2017-06-01T11:41:49.594Z,1009.92
2017-06-01T11:42:51.031Z,1009.92
2017-06-01T11:43:52.466Z,1009.90
2017-06-01T11:44:53.909Z,1009.89
2017-06-01T11:45:55.906Z,1009.86
2017-06-01T11:46:57.345Z,1009.80
2017-06-01T11:47:58.777Z,1009.83
2017-06-01T11:49:00.219Z,1009.84
2017-06-01T11:50:01.665Z,1009.81
2017-06-01T11:51:03.099Z,1009.78
2017-06-01T11:52:04.540Z,1009.81
2017-06-01T11:53:05.980Z,1009.76
2017-06-01T11:54:07.414Z,1009.76
2017-06-01T11:55:08.848Z,1009.71
2017-06-01T11:56:10.291Z,1009.71
2017-06-01T11:57:11.721Z,1009.72
2017-06-01T11:58:13.164Z,1009.75
2017-06-01T11:59:14.607Z,1009.75
2017-06-01T12:00:16.047Z,1009.75
2017-06-01T12:01:17.485Z,1009.69
2017-06-01T12:02:18.994Z,1009.70
2017-06-01T12:03:20.373Z,1009.69
2017-06-01T12:04:21.809Z,1009.70
2017-06-01T12:05:23.270Z,1009.67
2017-06-01T12:06:24.706Z,1009.66
2017-06-01T12:07:26.160Z,1009.64
2017-06-01T12:08:27.600Z,1009.60
2017-06-01T12:09:29.029Z,1009.65
2017-06-01T12:10:30.470Z,1009.64
2017-06-01T12:11:31.911Z,1009.61
2017-06-01T12:12:33.345Z,1009.64
2017-06-01T12:13:34.791Z,1009.61
2017-06-01T12:14:36.237Z,1009.65
2017-06-01T12:15:37.872Z,1009.55
2017-06-01T12:16:39.312Z,1009.57
2017-06-01T12:17:40.756Z,1009.59
2017-06-01T12:18:42.199Z,1009.52
2017-06-01T12:19:43.644Z,1009.54
2017-06-01T12:20:45.079Z,1009.53
2017-06-01T12:21:46.515Z,1009.57
2017-06-01T12:22:47.957Z,1009.54
2017-06-01T12:23:49.388Z,1009.55